sensor_id;sensor_type;location;lat;lon;timestamp;pressure;altitude;pressure_sealevel;temperature;humidity
19845;BME280;10083;51.038;7.012;2024-02-15T11:41:10;101434.34;;;18.17;100.00
19845;BME280;10083;51.038;7.012;2024-02-15T11:43:50;101410.56;;;18.03;100.00
19845;BME280;10083;51.038;7.012;2024-02-15T11:46:22;101418.69;;;18.24;100.00
19845;BME280;10083;51.038;7.012;2024-02-15T11:48:51;101464.97;;;17.99;100.00
19845;BME280;10083;51.038;7.012;2024-02-15T11:51:35;101498.91;;;18.29;100.00
19845;BME280;10083;51.038;7.012;2024-02-15T11:54:09;101598.41;;;17.84;100.00
19845;BME280;10083;51.038;7.012;2024-02-15T11:56:52;101615.94;;;18.19;100.00
19845;BME280;10083;51.038;7.012;2024-02-15T11:59:30;101665.56;;;17.76;100.00
19845;BME280;10083;51.038;7.012;2024-02-15T12:02:08;101649.47;;;17.94;100.00
19845;BME280;10083;51.038;7.012;2024-02-15T12:04:53;101655.59;;;17.76;100.00
19845;BME280;10083;51.038;7.012;2024-02-15T12:07:38;101657.50;;;17.74;100.00
19845;BME280;10083;51.038;7.012;2024-02-15T12:10:22;101637.69;;;17.72;100.00
19845;BME280;10083;51.038;7.012;2024-02-15T12:13:08;101651.44;;;17.68;100.00
19845;BME280;10083;51.038;7.012;2024-02-15T12:15:57;101628.53;;;17.51;100.00
19845;BME280;10083;51.038;7.012;2024-02-15T12:18:42;101612.88;;;17.61;100.00
19845;BME280;10083;51.038;7.012;2024-02-15T12:21:13;101597.13;;;17.71;100.00
19845;BME280;10083;51.038;7.012;2024-02-15T12:23:42;101559.28;;;17.91;100.00
19845;BME280;10083;51.038;7.012;2024-02-15T12:26:11;101542.97;;;17.92;100.00
19845;BME280;10083;51.038;7.012;2024-02-15T12:28:44;101539.41;;;17.90;100.00
19845;BME280;10083;51.038;7.012;2024-02-15T12:31:18;101503.22;;;18.13;100.00
19845;BME280;10083;51.038;7.012;2024-02-15T12:33:45;101485.88;;;18.17;100.00
19845;BME280;10083;51.038;7.012;2024-02-15T12:36:15;101488.28;;;18.03;100.00
19845;BME280;10083;51.038;7.012;2024-02-15T12:38:58;101493.75;;;18.01;100.00
19845;BME280;10083;51.038;7.012;2024-02-15T12:41:25;101470.53;;;18.16;100.00
19845;BME280;10083;51.038;7.012;2024-02-15T12:43:54;101483.69;;;18.05;100.00
19845;BME280;10083;51.038;7.012;2024-02-15T12:46:22;101457.94;;;18.35;100.00
19845;BME280;10083;51.038;7.012;2024-02-15T12:49:06;101473.94;;;18.41;100.00
19845;BME280;10083;51.038;7.012;2024-02-15T12:51:49;101477.84;;;18.56;100.00
19845;BME280;10083;51.038;7.012;2024-02-15T12:54:22;101509.69;;;18.91;100.00
19845;BME280;10083;51.038;7.012;2024-02-15T12:56:50;101558.31;;;19.16;100.00
19845;BME280;10083;51.038;7.012;2024-02-15T12:59:19;101591.94;;;19.14;100.00
19845;BME280;10083;51.038;7.012;2024-02-15T13:01:47;101655.00;;;19.00;100.00
19845;BME280;10083;51.038;7.012;2024-02-15T13:04:22;101692.69;;;19.08;100.00
19845;BME280;10083;51.038;7.012;2024-02-15T13:06:49;101726.50;;;19.01;100.00
19845;BME280;10083;51.038;7.012;2024-02-15T13:09:16;101770.31;;;18.70;100.00
19845;BME280;10083;51.038;7.012;2024-02-15T13:11:44;101797.50;;;18.90;100.00
19845;BME280;10083;51.038;7.012;2024-02-15T13:14:12;101749.66;;;19.29;100.00
19845;BME280;10083;51.038;7.012;2024-02-15T13:16:41;101758.72;;;19.50;100.00
19845;BME280;10083;51.038;7.012;2024-02-15T13:19:10;101835.28;;;18.96;100.00
19845;BME280;10083;51.038;7.012;2024-02-15T13:21:37;101849.63;;;19.00;100.00
19845;BME280;10083;51.038;7.012;2024-02-15T13:24:05;101877.03;;;18.70;100.00
19845;BME280;10083;51.038;7.012;2024-02-15T13:26:32;101898.34;;;18.58;100.00
19845;BME280;10083;51.038;7.012;2024-02-15T13:28:59;101904.59;;;18.35;100.00
19845;BME280;10083;51.038;7.012;2024-02-15T13:31:26;101906.44;;;18.10;100.00
19845;BME280;10083;51.038;7.012;2024-02-15T13:33:55;101885.22;;;18.21;100.00
19845;BME280;10083;51.038;7.012;2024-02-15T13:36:22;101885.91;;;18.27;100.00
19845;BME280;10083;51.038;7.012;2024-02-15T13:38:49;101878.72;;;18.26;100.00
19845;BME280;10083;51.038;7.012;2024-02-15T13:41:17;101859.03;;;18.44;100.00
19845;BME280;10083;51.038;7.012;2024-02-15T13:43:47;101871.97;;;18.13;100.00
19845;BME280;10083;51.038;7.012;2024-02-15T13:46:14;101875.28;;;18.21;100.00
19845;BME280;10083;51.038;7.012;2024-02-15T13:48:45;101873.28;;;18.26;100.00
19845;BME280;10083;51.038;7.012;2024-02-15T13:51:14;101853.53;;;18.46;100.00
19845;BME280;10083;51.038;7.012;2024-02-15T13:53:41;101868.88;;;19.15;100.00
19845;BME280;10083;51.038;7.012;2024-02-15T13:56:09;101946.91;;;19.33;100.00
19845;BME280;10083;51.038;7.012;2024-02-15T13:58:36;101994.16;;;19.29;100.00
19845;BME280;10083;51.038;7.012;2024-02-15T14:01:03;102026.69;;;19.54;100.00
19845;BME280;10083;51.038;7.012;2024-02-15T14:03:31;102117.06;;;19.36;100.00
19845;BME280;10083;51.038;7.012;2024-02-15T14:05:59;102157.28;;;19.26;100.00
19845;BME280;10083;51.038;7.012;2024-02-15T14:08:28;102204.00;;;19.11;100.00
19845;BME280;10083;51.038;7.012;2024-02-15T14:10:59;102194.53;;;19.23;100.00
19845;BME280;10083;51.038;7.012;2024-02-15T14:13:28;102205.13;;;19.30;100.00
19845;BME280;10083;51.038;7.012;2024-02-15T14:15:59;102237.88;;;19.01;100.00
19845;BME280;10083;51.038;7.012;2024-02-15T14:18:26;102222.94;;;18.62;100.00
19845;BME280;10083;51.038;7.012;2024-02-15T14:20:53;102185.25;;;18.79;100.00
19845;BME280;10083;51.038;7.012;2024-02-15T14:23:21;102214.03;;;18.29;100.00
19845;BME280;10083;51.038;7.012;2024-02-15T14:25:49;102167.97;;;18.55;100.00
19845;BME280;10083;51.038;7.012;2024-02-15T14:28:19;102170.56;;;18.58;100.00
19845;BME280;10083;51.038;7.012;2024-02-15T14:30:46;102190.53;;;18.57;100.00
19845;BME280;10083;51.038;7.012;2024-02-15T14:33:32;102175.75;;;18.92;100.00
19845;BME280;10083;51.038;7.012;2024-02-15T14:35:59;102186.28;;;19.97;100.00
19845;BME280;10083;51.038;7.012;2024-02-15T14:38:26;102244.69;;;20.10;100.00
19845;BME280;10083;51.038;7.012;2024-02-15T14:40:55;102295.31;;;19.91;100.00
19845;BME280;10083;51.038;7.012;2024-02-15T14:43:25;102331.78;;;19.85;100.00
19845;BME280;10083;51.038;7.012;2024-02-15T14:45:56;102374.34;;;19.62;100.00
19845;BME280;10083;51.038;7.012;2024-02-15T14:48:23;102382.34;;;19.12;100.00
19845;BME280;10083;51.038;7.012;2024-02-15T14:50:50;102346.53;;;19.27;100.00
19845;BME280;10083;51.038;7.012;2024-02-15T14:53:18;102364.50;;;19.04;100.00
19845;BME280;10083;51.038;7.012;2024-02-15T14:55:45;102326.22;;;19.11;100.00
19845;BME280;10083;51.038;7.012;2024-02-15T14:58:14;102329.41;;;18.97;100.00
19845;BME280;10083;51.038;7.012;2024-02-15T15:00:45;102340.63;;;18.87;100.00
19845;BME280;10083;51.038;7.012;2024-02-15T15:03:12;102323.84;;;18.74;100.00
19845;BME280;10083;51.038;7.012;2024-02-15T15:05:39;102313.53;;;18.58;100.00
19845;BME280;10083;51.038;7.012;2024-02-15T15:08:24;102318.75;;;18.34;100.00
19845;BME280;10083;51.038;7.012;2024-02-15T15:11:08;102241.25;;;18.26;100.00
19845;BME280;10083;51.038;7.012;2024-02-15T15:13:56;102225.31;;;18.15;100.00
19845;BME280;10083;51.038;7.012;2024-02-15T15:16:23;102203.38;;;17.93;100.00
19845;BME280;10083;51.038;7.012;2024-02-15T15:18:51;102168.78;;;18.01;100.00
19845;BME280;10083;51.038;7.012;2024-02-15T15:21:19;102132.22;;;17.87;100.00
19845;BME280;10083;51.038;7.012;2024-02-15T15:23:46;102090.41;;;17.94;100.00
19845;BME280;10083;51.038;7.012;2024-02-15T15:26:19;102054.50;;;17.59;100.00
19845;BME280;10083;51.038;7.012;2024-02-15T15:28:48;101991.34;;;17.57;100.00
19845;BME280;10083;51.038;7.012;2024-02-15T15:31:17;101946.09;;;17.61;100.00
19845;BME280;10083;51.038;7.012;2024-02-15T15:33:49;101906.50;;;17.55;100.00
19845;BME280;10083;51.038;7.012;2024-02-15T15:36:18;101888.47;;;17.54;100.00
19845;BME280;10083;51.038;7.012;2024-02-15T15:38:45;101889.50;;;17.24;100.00
19845;BME280;10083;51.038;7.012;2024-02-15T15:41:14;101848.16;;;17.45;100.00
19845;BME280;10083;51.038;7.012;2024-02-15T15:43:41;101845.75;;;17.36;100.00
19845;BME280;10083;51.038;7.012;2024-02-15T15:46:13;101871.69;;;17.17;100.00
19845;BME280;10083;51.038;7.012;2024-02-15T15:48:42;101878.81;;;17.19;100.00
19845;BME280;10083;51.038;7.012;2024-02-15T15:51:09;101902.09;;;17.25;100.00
19845;BME280;10083;51.038;7.012;2024-02-15T15:53:39;101929.38;;;17.19;100.00
19845;BME280;10083;51.038;7.012;2024-02-15T15:56:06;101937.31;;;17.25;100.00
19845;BME280;10083;51.038;7.012;2024-02-15T15:58:33;101933.09;;;17.15;100.00
19845;BME280;10083;51.038;7.012;2024-02-15T16:01:00;101902.41;;;17.16;100.00
19845;BME280;10083;51.038;7.012;2024-02-15T16:03:27;101841.06;;;17.15;100.00
19845;BME280;10083;51.038;7.012;2024-02-15T16:05:57;101774.31;;;17.40;100.00
19845;BME280;10083;51.038;7.012;2024-02-15T16:08:23;101771.72;;;17.37;100.00
19845;BME280;10083;51.038;7.012;2024-02-15T16:10:52;101746.16;;;17.19;100.00
19845;BME280;10083;51.038;7.012;2024-02-15T16:13:21;101716.00;;;17.05;100.00
19845;BME280;10083;51.038;7.012;2024-02-15T16:15:51;101657.31;;;17.06;100.00
19845;BME280;10083;51.038;7.012;2024-02-15T16:18:19;101650.41;;;16.97;100.00
19845;BME280;10083;51.038;7.012;2024-02-15T16:20:46;101625.00;;;17.01;100.00
19845;BME280;10083;51.038;7.012;2024-02-15T16:23:17;101612.50;;;16.97;100.00
19845;BME280;10083;51.038;7.012;2024-02-15T16:25:44;101680.03;;;16.76;100.00
19845;BME280;10083;51.038;7.012;2024-02-15T16:28:11;101727.91;;;16.73;100.00
19845;BME280;10083;51.038;7.012;2024-02-15T16:30:38;101743.28;;;16.71;100.00
19845;BME280;10083;51.038;7.012;2024-02-15T16:33:05;101778.56;;;16.68;100.00
19845;BME280;10083;51.038;7.012;2024-02-15T16:35:32;101803.19;;;16.59;100.00
19845;BME280;10083;51.038;7.012;2024-02-15T16:38:01;101832.25;;;16.53;100.00
19845;BME280;10083;51.038;7.012;2024-02-15T16:40:32;101832.16;;;16.54;100.00
19845;BME280;10083;51.038;7.012;2024-02-15T16:42:59;101850.44;;;16.46;100.00
19845;BME280;10083;51.038;7.012;2024-02-15T16:45:26;101854.97;;;16.46;100.00
19845;BME280;10083;51.038;7.012;2024-02-15T16:47:53;101872.31;;;16.39;100.00
19845;BME280;10083;51.038;7.012;2024-02-15T16:50:24;101885.84;;;16.39;100.00
19845;BME280;10083;51.038;7.012;2024-02-15T16:52:51;101922.69;;;16.41;100.00
19845;BME280;10083;51.038;7.012;2024-02-15T16:55:17;101957.44;;;16.24;100.00
19845;BME280;10083;51.038;7.012;2024-02-15T16:57:52;101938.22;;;16.35;100.00
19845;BME280;10083;51.038;7.012;2024-02-15T17:00:28;101949.41;;;16.22;100.00
19845;BME280;10083;51.038;7.012;2024-02-15T17:02:55;101976.66;;;16.13;100.00
19845;BME280;10083;51.038;7.012;2024-02-15T17:05:22;101981.41;;;16.05;100.00
19845;BME280;10083;51.038;7.012;2024-02-15T17:07:50;101967.00;;;16.05;100.00
19845;BME280;10083;51.038;7.012;2024-02-15T17:10:19;101997.66;;;16.02;100.00
19845;BME280;10083;51.038;7.012;2024-02-15T17:12:50;102014.81;;;16.01;100.00
19845;BME280;10083;51.038;7.012;2024-02-15T17:15:21;102036.69;;;15.92;100.00
19845;BME280;10083;51.038;7.012;2024-02-15T17:17:51;102054.50;;;15.99;100.00
19845;BME280;10083;51.038;7.012;2024-02-15T17:20:19;102067.94;;;16.02;100.00
19845;BME280;10083;51.038;7.012;2024-02-15T17:22:48;102115.66;;;16.03;100.00
19845;BME280;10083;51.038;7.012;2024-02-15T17:25:16;102133.00;;;15.93;100.00
19845;BME280;10083;51.038;7.012;2024-02-15T17:27:43;102151.25;;;15.83;100.00
19845;BME280;10083;51.038;7.012;2024-02-15T17:30:12;102149.59;;;15.78;100.00
19845;BME280;10083;51.038;7.012;2024-02-15T17:32:39;102142.38;;;15.78;100.00
19845;BME280;10083;51.038;7.012;2024-02-15T17:35:08;102149.50;;;15.81;100.00
19845;BME280;10083;51.038;7.012;2024-02-15T17:37:39;102162.13;;;15.80;100.00
19845;BME280;10083;51.038;7.012;2024-02-15T17:40:07;102181.09;;;15.79;100.00
19845;BME280;10083;51.038;7.012;2024-02-15T17:42:37;102216.50;;;15.65;100.00
19845;BME280;10083;51.038;7.012;2024-02-15T17:45:06;102178.41;;;15.77;100.00
19845;BME280;10083;51.038;7.012;2024-02-15T17:47:39;102182.94;;;15.75;100.00
19845;BME280;10083;51.038;7.012;2024-02-15T17:50:07;102184.78;;;15.75;100.00
19845;BME280;10083;51.038;7.012;2024-02-15T17:52:35;102186.59;;;15.73;100.00
19845;BME280;10083;51.038;7.012;2024-02-15T17:55:03;102197.44;;;15.71;100.00
19845;BME280;10083;51.038;7.012;2024-02-15T17:57:34;102178.78;;;15.59;100.00
19845;BME280;10083;51.038;7.012;2024-02-15T18:00:02;102176.03;;;15.62;100.00
19845;BME280;10083;51.038;7.012;2024-02-15T18:02:39;102158.00;;;15.63;100.00
19845;BME280;10083;51.038;7.012;2024-02-15T18:05:08;102153.41;;;15.66;100.00
19845;BME280;10083;51.038;7.012;2024-02-15T18:07:37;102121.91;;;15.67;100.00
19845;BME280;10083;51.038;7.012;2024-02-15T18:10:05;102130.50;;;15.44;100.00
19845;BME280;10083;51.038;7.012;2024-02-15T18:12:38;102098.03;;;15.47;100.00
19845;BME280;10083;51.038;7.012;2024-02-15T18:15:07;102076.34;;;15.53;100.00
19845;BME280;10083;51.038;7.012;2024-02-15T18:17:45;102061.00;;;15.54;100.00
19845;BME280;10083;51.038;7.012;2024-02-15T18:20:13;102070.75;;;15.61;100.00
19845;BME280;10083;51.038;7.012;2024-02-15T18:22:40;102056.59;;;15.48;100.00
19845;BME280;10083;51.038;7.012;2024-02-15T18:25:09;102028.25;;;15.67;100.00
19845;BME280;10083;51.038;7.012;2024-02-15T18:27:36;102025.56;;;15.67;100.00
19845;BME280;10083;51.038;7.012;2024-02-15T18:30:03;102030.34;;;15.56;100.00
19845;BME280;10083;51.038;7.012;2024-02-15T18:32:34;102003.38;;;15.55;100.00
19845;BME280;10083;51.038;7.012;2024-02-15T18:35:06;101990.53;;;15.64;100.00
19845;BME280;10083;51.038;7.012;2024-02-15T18:37:36;101994.25;;;15.60;100.00
19845;BME280;10083;51.038;7.012;2024-02-15T18:40:03;101984.25;;;15.64;100.00
19845;BME280;10083;51.038;7.012;2024-02-15T18:42:32;101964.44;;;15.63;100.00
19845;BME280;10083;51.038;7.012;2024-02-15T18:45:01;101953.72;;;15.60;100.00
19845;BME280;10083;51.038;7.012;2024-02-15T18:47:28;101941.91;;;15.66;100.00
19845;BME280;10083;51.038;7.012;2024-02-15T18:49:56;101913.31;;;15.57;100.00
19845;BME280;10083;51.038;7.012;2024-02-15T18:52:26;101898.31;;;15.44;100.00
19845;BME280;10083;51.038;7.012;2024-02-15T18:54:56;101874.63;;;15.57;100.00
19845;BME280;10083;51.038;7.012;2024-02-15T18:57:24;101875.78;;;15.45;100.00
19845;BME280;10083;51.038;7.012;2024-02-15T18:59:51;101874.94;;;15.43;100.00
19845;BME280;10083;51.038;7.012;2024-02-15T19:02:19;101861.91;;;15.60;100.00
19845;BME280;10083;51.038;7.012;2024-02-15T19:04:48;101872.03;;;15.52;100.00
19845;BME280;10083;51.038;7.012;2024-02-15T19:07:15;101842.38;;;15.51;100.00
19845;BME280;10083;51.038;7.012;2024-02-15T19:09:44;101843.47;;;15.42;100.00
19845;BME280;10083;51.038;7.012;2024-02-15T19:12:11;101817.25;;;15.47;100.00
19845;BME280;10083;51.038;7.012;2024-02-15T19:14:38;101809.97;;;15.49;100.00
19845;BME280;10083;51.038;7.012;2024-02-15T19:17:05;101766.88;;;15.45;100.00
19845;BME280;10083;51.038;7.012;2024-02-15T19:19:32;101759.94;;;15.36;100.00
19845;BME280;10083;51.038;7.012;2024-02-15T19:21:59;101736.41;;;15.41;100.00
19845;BME280;10083;51.038;7.012;2024-02-15T19:24:28;101722.63;;;15.53;100.00
19845;BME280;10083;51.038;7.012;2024-02-15T19:26:56;101697.66;;;15.44;100.00
19845;BME280;10083;51.038;7.012;2024-02-15T19:29:23;101692.31;;;15.40;100.00
19845;BME280;10083;51.038;7.012;2024-02-15T19:31:50;101662.56;;;15.44;100.00
19845;BME280;10083;51.038;7.012;2024-02-15T19:34:17;101682.59;;;15.35;100.00
19845;BME280;10083;51.038;7.012;2024-02-15T19:36:46;101660.00;;;15.39;100.00
19845;BME280;10083;51.038;7.012;2024-02-15T19:39:14;101650.97;;;15.40;100.00
19845;BME280;10083;51.038;7.012;2024-02-15T19:41:42;101649.00;;;15.45;100.00
19845;BME280;10083;51.038;7.012;2024-02-15T19:44:11;101636.31;;;15.49;100.00
19845;BME280;10083;51.038;7.012;2024-02-15T19:46:40;101618.59;;;15.40;100.00
19845;BME280;10083;51.038;7.012;2024-02-15T19:49:11;101609.59;;;15.39;100.00
19845;BME280;10083;51.038;7.012;2024-02-15T19:51:38;101589.53;;;15.48;100.00
19845;BME280;10083;51.038;7.012;2024-02-15T19:54:05;101583.50;;;15.40;100.00
19845;BME280;10083;51.038;7.012;2024-02-15T19:56:32;101542.91;;;15.43;100.00
19845;BME280;10083;51.038;7.012;2024-02-15T19:58:59;101536.34;;;15.22;100.00
19845;BME280;10083;51.038;7.012;2024-02-15T20:01:28;101483.34;;;15.20;100.00
19845;BME280;10083;51.038;7.012;2024-02-15T20:03:57;101455.38;;;15.22;100.00
19845;BME280;10083;51.038;7.012;2024-02-15T20:06:23;101437.59;;;15.15;100.00
19845;BME280;10083;51.038;7.012;2024-02-15T20:08:52;101426.44;;;14.98;100.00
19845;BME280;10083;51.038;7.012;2024-02-15T20:11:24;101385.53;;;15.13;100.00
19845;BME280;10083;51.038;7.012;2024-02-15T20:13:51;101372.78;;;15.18;100.00
19845;BME280;10083;51.038;7.012;2024-02-15T20:16:19;101366.28;;;14.96;100.00
19845;BME280;10083;51.038;7.012;2024-02-15T20:18:49;101317.53;;;15.02;100.00
19845;BME280;10083;51.038;7.012;2024-02-15T20:21:17;101328.16;;;15.07;100.00
19845;BME280;10083;51.038;7.012;2024-02-15T20:23:44;101323.19;;;14.94;100.00
19845;BME280;10083;51.038;7.012;2024-02-15T20:26:11;101285.00;;;15.07;100.00
19845;BME280;10083;51.038;7.012;2024-02-15T20:28:38;101295.50;;;14.88;100.00
19845;BME280;10083;51.038;7.012;2024-02-15T20:31:10;101251.44;;;14.89;100.00
19845;BME280;10083;51.038;7.012;2024-02-15T20:33:37;101226.50;;;14.82;100.00
19845;BME280;10083;51.038;7.012;2024-02-15T20:36:07;101223.31;;;14.70;100.00
19845;BME280;10083;51.038;7.012;2024-02-15T20:38:34;101182.72;;;14.74;100.00
19845;BME280;10083;51.038;7.012;2024-02-15T20:41:01;101145.00;;;14.74;100.00
19845;BME280;10083;51.038;7.012;2024-02-15T20:43:31;101145.97;;;14.72;100.00
19845;BME280;10083;51.038;7.012;2024-02-15T20:46:02;101149.22;;;14.55;100.00
19845;BME280;10083;51.038;7.012;2024-02-15T20:48:29;101123.03;;;14.59;100.00
19845;BME280;10083;51.038;7.012;2024-02-15T20:50:56;101082.44;;;14.63;100.00
19845;BME280;10083;51.038;7.012;2024-02-15T20:53:25;101060.84;;;14.65;100.00
19845;BME280;10083;51.038;7.012;2024-02-15T20:55:53;101051.00;;;14.64;100.00
19845;BME280;10083;51.038;7.012;2024-02-15T20:58:20;101056.50;;;14.61;100.00
19845;BME280;10083;51.038;7.012;2024-02-15T21:00:47;101033.72;;;14.69;100.00
19845;BME280;10083;51.038;7.012;2024-02-15T21:03:13;101030.09;;;14.70;100.00
19845;BME280;10083;51.038;7.012;2024-02-15T21:05:40;101035.53;;;14.69;100.00
19845;BME280;10083;51.038;7.012;2024-02-15T21:08:07;101044.50;;;14.69;100.00
19845;BME280;10083;51.038;7.012;2024-02-15T21:10:37;101059.75;;;14.70;100.00
19845;BME280;10083;51.038;7.012;2024-02-15T21:13:06;101068.78;;;14.69;100.00
19845;BME280;10083;51.038;7.012;2024-02-15T21:15:33;101066.41;;;14.60;100.00
19845;BME280;10083;51.038;7.012;2024-02-15T21:18:00;101064.31;;;14.68;100.00
19845;BME280;10083;51.038;7.012;2024-02-15T21:20:27;101058.88;;;14.70;100.00
19845;BME280;10083;51.038;7.012;2024-02-15T21:22:56;101051.38;;;14.53;100.00
19845;BME280;10083;51.038;7.012;2024-02-15T21:25:30;101047.84;;;14.51;100.00
19845;BME280;10083;51.038;7.012;2024-02-15T21:27:58;101009.19;;;14.52;100.00
19845;BME280;10083;51.038;7.012;2024-02-15T21:30:26;100992.91;;;14.55;100.00
19845;BME280;10083;51.038;7.012;2024-02-15T21:32:54;100964.50;;;14.45;100.00
19845;BME280;10083;51.038;7.012;2024-02-15T21:35:20;100950.00;;;14.49;100.00
19845;BME280;10083;51.038;7.012;2024-02-15T21:37:48;100926.69;;;14.48;100.00
19845;BME280;10083;51.038;7.012;2024-02-15T21:40:17;100936.34;;;14.54;100.00
19845;BME280;10083;51.038;7.012;2024-02-15T21:42:44;100939.34;;;14.46;100.00
19845;BME280;10083;51.038;7.012;2024-02-15T21:45:12;100910.69;;;14.43;100.00
19845;BME280;10083;51.038;7.012;2024-02-15T21:47:40;100923.28;;;14.43;100.00
19845;BME280;10083;51.038;7.012;2024-02-15T21:50:09;100927.94;;;14.38;100.00
19845;BME280;10083;51.038;7.012;2024-02-15T21:52:36;100908.22;;;14.37;100.00
19845;BME280;10083;51.038;7.012;2024-02-15T21:55:04;100912.09;;;14.29;100.00
19845;BME280;10083;51.038;7.012;2024-02-15T21:57:31;100900.78;;;14.44;100.00
19845;BME280;10083;51.038;7.012;2024-02-15T21:59:58;100895.34;;;14.45;100.00
19845;BME280;10083;51.038;7.012;2024-02-15T22:02:26;100941.69;;;14.30;100.00
19845;BME280;10083;51.038;7.012;2024-02-15T22:04:53;100915.50;;;14.35;100.00
19845;BME280;10083;51.038;7.012;2024-02-15T22:07:20;100917.34;;;14.32;100.00
19845;BME280;10083;51.038;7.012;2024-02-15T22:09:48;100896.47;;;14.40;100.00
19845;BME280;10083;51.038;7.012;2024-02-15T22:12:17;100914.56;;;14.35;100.00
19845;BME280;10083;51.038;7.012;2024-02-15T22:14:44;100911.03;;;14.33;100.00
19845;BME280;10083;51.038;7.012;2024-02-15T22:17:11;100914.81;;;14.27;100.00
19845;BME280;10083;51.038;7.012;2024-02-15T22:19:39;100919.13;;;14.33;100.00
19845;BME280;10083;51.038;7.012;2024-02-15T22:22:06;100907.63;;;14.28;100.00
19845;BME280;10083;51.038;7.012;2024-02-15T22:24:35;100900.16;;;14.36;100.00
19845;BME280;10083;51.038;7.012;2024-02-15T22:27:02;100917.13;;;14.39;100.00
19845;BME280;10083;51.038;7.012;2024-02-15T22:29:29;100940.59;;;14.36;100.00
19845;BME280;10083;51.038;7.012;2024-02-15T22:31:59;100938.63;;;14.41;100.00
19845;BME280;10083;51.038;7.012;2024-02-15T22:34:27;100957.69;;;14.35;100.00
19845;BME280;10083;51.038;7.012;2024-02-15T22:36:55;100967.03;;;14.49;100.00
19845;BME280;10083;51.038;7.012;2024-02-15T22:39:22;101009.66;;;14.38;100.00
19845;BME280;10083;51.038;7.012;2024-02-15T22:41:49;101012.22;;;14.43;100.00
19845;BME280;10083;51.038;7.012;2024-02-15T22:44:16;101009.28;;;14.49;100.00
19845;BME280;10083;51.038;7.012;2024-02-15T22:46:47;101045.50;;;14.40;100.00
19845;BME280;10083;51.038;7.012;2024-02-15T22:49:16;101056.22;;;14.43;100.00
19845;BME280;10083;51.038;7.012;2024-02-15T22:51:43;101069.59;;;14.45;100.00
19845;BME280;10083;51.038;7.012;2024-02-15T22:54:12;101083.97;;;14.45;100.00
19845;BME280;10083;51.038;7.012;2024-02-15T22:56:38;101084.84;;;14.46;100.00
19845;BME280;10083;51.038;7.012;2024-02-15T22:59:05;101090.47;;;14.40;100.00
19845;BME280;10083;51.038;7.012;2024-02-15T23:01:34;101085.78;;;14.45;100.00
19845;BME280;10083;51.038;7.012;2024-02-15T23:04:01;101101.94;;;14.45;100.00
19845;BME280;10083;51.038;7.012;2024-02-15T23:06:28;101115.56;;;14.40;100.00
19845;BME280;10083;51.038;7.012;2024-02-15T23:08:55;101129.31;;;14.59;100.00
19845;BME280;10083;51.038;7.012;2024-02-15T23:11:23;101140.31;;;14.53;100.00
19845;BME280;10083;51.038;7.012;2024-02-15T23:13:51;101164.63;;;14.52;100.00
19845;BME280;10083;51.038;7.012;2024-02-15T23:16:18;101170.00;;;14.52;100.00
19845;BME280;10083;51.038;7.012;2024-02-15T23:18:47;101190.41;;;14.60;100.00
19845;BME280;10083;51.038;7.012;2024-02-15T23:21:14;101189.53;;;14.58;100.00
19845;BME280;10083;51.038;7.012;2024-02-15T23:23:41;101194.63;;;14.67;100.00
19845;BME280;10083;51.038;7.012;2024-02-15T23:26:11;101226.22;;;14.64;100.00
19845;BME280;10083;51.038;7.012;2024-02-15T23:28:41;101238.22;;;14.54;100.00
19845;BME280;10083;51.038;7.012;2024-02-15T23:31:08;101240.63;;;14.63;100.00
19845;BME280;10083;51.038;7.012;2024-02-15T23:33:38;101273.75;;;14.66;100.00
19845;BME280;10083;51.038;7.012;2024-02-15T23:36:07;101268.56;;;14.60;100.00
19845;BME280;10083;51.038;7.012;2024-02-15T23:38:51;101269.63;;;14.55;100.00
19845;BME280;10083;51.038;7.012;2024-02-15T23:41:31;101270.38;;;14.60;100.00
19845;BME280;10083;51.038;7.012;2024-02-15T23:44:00;101266.16;;;14.51;100.00
19845;BME280;10083;51.038;7.012;2024-02-15T23:46:27;101235.50;;;14.54;100.00
19845;BME280;10083;51.038;7.012;2024-02-15T23:48:54;101225.69;;;14.53;100.00
19845;BME280;10083;51.038;7.012;2024-02-15T23:51:21;101223.66;;;14.59;100.00
19845;BME280;10083;51.038;7.012;2024-02-15T23:53:48;101215.69;;;14.56;100.00
19845;BME280;10083;51.038;7.012;2024-02-15T23:56:15;101233.41;;;14.63;100.00
19845;BME280;10083;51.038;7.012;2024-02-15T23:58:44;101261.97;;;14.70;100.00
